PWSweather.com
Personal Weather Stations
Station Observations
ISYDDANM23
Felsted, AabenraaDK 6200

FelstedAabenraaDK 6200

Lat: 54.977066, Lon: 9.507192

Elevation: 135

Station Type: Davis Vantage Pro 2 Plus 24H

http://www.valkaer.dk

High Low Average
Temperature 74.4°F23.6°C 50.8°F10.4°C 64.1°F17.8°C
Dew Point 58.8°F14.9°C 48.0°F8.9°C 54.8°F12.7°C
Winds 13.8 mph 22.2 kmh Calm Calm 5.0 mph SSW8.0 kmh SSW
Wind Gusts 18.4 mph29.6 kmh -- 7.0 mph11.3 kmh
Humidity 92% 51% 73%
Pressure 30.15 in1021.0 mb 30.07 in1018.3 mb -
Precipitation 0.00 in0.0 mm - -
Hour Temp Dew Point Humidity Winds Wind Gusts Pressure Precip Precip Rate Daily Precip Total
12:00 AM 54.6°F12.6°C 50.8°F10.4°C 87% 1.2 mph SW1.9 kmh SW 2.3 mph3.7 kmh 30.14 in1020.7 mb - 0.00 in0.0 mm 0.00 in0.0 mm
12:10 AM 54.7°F12.6°C 51.2°F10.7°C 88% 1.2 mph SW1.9 kmh SW 2.3 mph3.7 kmh 30.14 in1020.7 mb - 0.00 in0.0 mm 0.00 in0.0 mm
12:15 AM 54.6°F12.6°C 51.1°F10.6°C 88% 1.2 mph SW1.9 kmh SW 1.2 mph1.9 kmh 30.14 in1020.7 mb - 0.00 in0.0 mm 0.00 in0.0 mm
12:20 AM 54.5°F12.5°C 51.0°F10.6°C 88% Calm Calm -- 30.13 in1020.3 mb - 0.00 in0.0 mm 0.00 in0.0 mm
12:25 AM 54.2°F12.3°C 50.7°F10.4°C 88% 1.2 mph SW1.9 kmh SW 1.2 mph1.9 kmh 30.14 in1020.7 mb - 0.00 in0.0 mm 0.00 in0.0 mm
12:30 AM 53.9°F12.2°C 50.4°F10.2°C 88% Calm Calm -- 30.14 in1020.7 mb - 0.00 in0.0 mm 0.00 in0.0 mm
12:35 AM 53.9°F12.2°C 50.7°F10.4°C 89% 1.2 mph SW1.9 kmh SW 1.2 mph1.9 kmh 30.14 in1020.7 mb - 0.00 in0.0 mm 0.00 in0.0 mm
12:40 AM 53.5°F11.9°C 50.0°F10.0°C 88% Calm Calm 1.2 mph1.9 kmh 30.14 in1020.7 mb - 0.00 in0.0 mm 0.00 in0.0 mm
12:45 AM 53.2°F11.8°C 50.1°F10.1°C 89% Calm Calm -- 30.14 in1020.7 mb - 0.00 in0.0 mm 0.00 in0.0 mm
12:50 AM 52.6°F11.4°C 49.1°F9.5°C 88% Calm Calm -- 30.14 in1020.7 mb - 0.00 in0.0 mm 0.00 in0.0 mm
12:55 AM 52.6°F11.4°C 49.8°F9.9°C 90% Calm Calm -- 30.14 in1020.7 mb - 0.00 in0.0 mm 0.00 in0.0 mm
01:00 AM 52.7°F11.5°C 49.5°F9.7°C 89% Calm Calm -- 30.14 in1020.7 mb - 0.00 in0.0 mm 0.00 in0.0 mm
01:10 AM 52.7°F11.5°C 49.8°F9.9°C 90% Calm Calm -- 30.14 in1020.7 mb - 0.00 in0.0 mm 0.00 in0.0 mm
01:15 AM 52.9°F11.6°C 50.0°F10.0°C 90% Calm Calm -- 30.13 in1020.3 mb - 0.00 in0.0 mm 0.00 in0.0 mm
01:20 AM 52.9°F11.6°C 50.0°F10.0°C 90% Calm Calm -- 30.13 in1020.3 mb - 0.00 in0.0 mm 0.00 in0.0 mm
01:25 AM 52.4°F11.3°C 49.6°F9.8°C 90% Calm Calm -- 30.13 in1020.3 mb - 0.00 in0.0 mm 0.00 in0.0 mm
01:30 AM 52.5°F11.4°C 49.9°F9.9°C 91% Calm Calm -- 30.13 in1020.3 mb - 0.00 in0.0 mm 0.00 in0.0 mm
01:35 AM 52.2°F11.2°C 49.4°F9.7°C 90% Calm Calm -- 30.13 in1020.3 mb - 0.00 in0.0 mm 0.00 in0.0 mm
01:40 AM 52.2°F11.2°C 49.7°F9.8°C 91% Calm Calm -- 30.13 in1020.3 mb - 0.00 in0.0 mm 0.00 in0.0 mm
01:45 AM 52.1°F11.2°C 49.6°F9.8°C 91% Calm Calm -- 30.13 in1020.3 mb - 0.00 in0.0 mm 0.00 in0.0 mm
01:50 AM 51.7°F10.9°C 49.2°F9.6°C 91% Calm Calm -- 30.13 in1020.3 mb - 0.00 in0.0 mm 0.00 in0.0 mm
01:55 AM 51.9°F11.1°C 49.3°F9.6°C 91% Calm Calm -- 30.13 in1020.3 mb - 0.00 in0.0 mm 0.00 in0.0 mm
02:00 AM 51.9°F11.1°C 49.3°F9.6°C 91% Calm Calm -- 30.13 in1020.3 mb - 0.00 in0.0 mm 0.00 in0.0 mm
02:10 AM 52.2°F11.2°C 49.6°F9.8°C 91% Calm Calm 1.2 mph1.9 kmh 30.13 in1020.3 mb - 0.00 in0.0 mm 0.00 in0.0 mm
02:15 AM 52.5°F11.4°C 50.0°F10.0°C 91% Calm Calm -- 30.13 in1020.3 mb - 0.00 in0.0 mm 0.00 in0.0 mm
02:20 AM 52.1°F11.2°C 49.3°F9.6°C 90% Calm Calm -- 30.13 in1020.3 mb - 0.00 in0.0 mm 0.00 in0.0 mm
02:25 AM 51.8°F11.0°C 49.3°F9.6°C 91% Calm Calm -- 30.13 in1020.3 mb - 0.00 in0.0 mm 0.00 in0.0 mm
02:30 AM 52.0°F11.1°C 49.5°F9.7°C 91% Calm Calm -- 30.13 in1020.3 mb - 0.00 in0.0 mm 0.00 in0.0 mm
02:35 AM 52.0°F11.1°C 49.4°F9.7°C 91% Calm Calm -- 30.13 in1020.3 mb - 0.00 in0.0 mm 0.00 in0.0 mm
02:40 AM 51.6°F10.9°C 48.7°F9.3°C 90% Calm Calm -- 30.13 in1020.3 mb - 0.00 in0.0 mm 0.00 in0.0 mm
02:45 AM 51.4°F10.8°C 48.6°F9.2°C 90% Calm Calm 1.2 mph1.9 kmh 30.13 in1020.3 mb - 0.00 in0.0 mm 0.00 in0.0 mm
02:50 AM 51.3°F10.7°C 48.5°F9.2°C 90% Calm Calm -- 30.13 in1020.3 mb - 0.00 in0.0 mm 0.00 in0.0 mm
02:55 AM 51.1°F10.6°C 48.3°F9.1°C 90% Calm Calm -- 30.13 in1020.3 mb - 0.00 in0.0 mm 0.00 in0.0 mm
03:00 AM 50.8°F10.4°C 48.0°F8.9°C 90% Calm Calm -- 30.13 in1020.3 mb - 0.00 in0.0 mm 0.00 in0.0 mm
03:10 AM 51.1°F10.6°C 48.5°F9.2°C 91% Calm Calm -- 30.13 in1020.3 mb - 0.00 in0.0 mm 0.00 in0.0 mm
03:15 AM 51.3°F10.7°C 48.8°F9.3°C 91% Calm Calm -- 30.13 in1020.3 mb - 0.00 in0.0 mm 0.00 in0.0 mm
03:20 AM 51.4°F10.8°C 48.9°F9.4°C 91% Calm Calm -- 30.13 in1020.3 mb - 0.00 in0.0 mm 0.00 in0.0 mm
03:25 AM 51.3°F10.7°C 48.8°F9.3°C 91% Calm Calm -- 30.13 in1020.3 mb - 0.00 in0.0 mm 0.00 in0.0 mm
03:30 AM 51.2°F10.7°C 48.7°F9.3°C 91% Calm Calm -- 30.13 in1020.3 mb - 0.00 in0.0 mm 0.00 in0.0 mm
03:35 AM 50.8°F10.4°C 48.3°F9.1°C 91% Calm Calm -- 30.13 in1020.3 mb - 0.00 in0.0 mm 0.00 in0.0 mm
03:40 AM 51.1°F10.6°C 48.8°F9.3°C 92% Calm Calm -- 30.14 in1020.7 mb - 0.00 in0.0 mm 0.00 in0.0 mm
03:45 AM 51.1°F10.6°C 48.9°F9.4°C 92% Calm Calm -- 30.13 in1020.3 mb - 0.00 in0.0 mm 0.00 in0.0 mm
03:50 AM 50.9°F10.5°C 48.4°F9.1°C 91% Calm Calm -- 30.13 in1020.3 mb - 0.00 in0.0 mm 0.00 in0.0 mm
03:55 AM 50.9°F10.5°C 48.7°F9.3°C 92% Calm Calm -- 30.13 in1020.3 mb - 0.00 in0.0 mm 0.00 in0.0 mm
04:00 AM 51.2°F10.7°C 48.7°F9.3°C 91% Calm Calm -- 30.13 in1020.3 mb - 0.00 in0.0 mm 0.00 in0.0 mm
04:10 AM 51.6°F10.9°C 49.1°F9.5°C 91% Calm Calm -- 30.14 in1020.7 mb - 0.00 in0.0 mm 0.00 in0.0 mm
04:15 AM 51.5°F10.8°C 49.0°F9.4°C 91% Calm Calm -- 30.14 in1020.7 mb - 0.00 in0.0 mm 0.00 in0.0 mm
04:20 AM 51.6°F10.9°C 49.1°F9.5°C 91% Calm Calm -- 30.13 in1020.3 mb - 0.00 in0.0 mm 0.00 in0.0 mm
04:25 AM 51.8°F11.0°C 49.3°F9.6°C 91% Calm Calm -- 30.13 in1020.3 mb - 0.00 in0.0 mm 0.00 in0.0 mm
04:30 AM 52.1°F11.2°C 49.6°F9.8°C 91% Calm Calm -- 30.13 in1020.3 mb - 0.00 in0.0 mm 0.00 in0.0 mm
04:35 AM 52.0°F11.1°C 49.2°F9.6°C 90% Calm Calm -- 30.14 in1020.7 mb - 0.00 in0.0 mm 0.00 in0.0 mm
04:40 AM 52.1°F11.2°C 49.6°F9.8°C 91% Calm Calm -- 30.13 in1020.3 mb - 0.00 in0.0 mm 0.00 in0.0 mm
04:45 AM 52.6°F11.4°C 50.0°F10.0°C 91% Calm Calm -- 30.13 in1020.3 mb - 0.00 in0.0 mm 0.00 in0.0 mm
04:50 AM 52.8°F11.6°C 50.2°F10.1°C 91% Calm Calm -- 30.13 in1020.3 mb - 0.00 in0.0 mm 0.00 in0.0 mm
04:55 AM 52.9°F11.6°C 50.3°F10.2°C 91% Calm Calm -- 30.13 in1020.3 mb - 0.00 in0.0 mm 0.00 in0.0 mm
05:00 AM 53.3°F11.8°C 50.8°F10.4°C 91% 1.2 mph SW1.9 kmh SW 1.2 mph1.9 kmh 30.13 in1020.3 mb - 0.00 in0.0 mm 0.00 in0.0 mm
05:10 AM 54.1°F12.3°C 51.2°F10.7°C 90% 1.2 mph SW1.9 kmh SW 3.5 mph5.6 kmh 30.13 in1020.3 mb - 0.00 in0.0 mm 0.00 in0.0 mm
05:15 AM 54.3°F12.4°C 51.4°F10.8°C 90% 1.2 mph SW1.9 kmh SW 2.3 mph3.7 kmh 30.14 in1020.7 mb - 0.00 in0.0 mm 0.00 in0.0 mm
05:20 AM 54.6°F12.6°C 51.8°F11.0°C 90% 1.2 mph SW1.9 kmh SW 1.2 mph1.9 kmh 30.13 in1020.3 mb - 0.00 in0.0 mm 0.00 in0.0 mm
05:25 AM 55.2°F12.9°C 52.3°F11.3°C 90% 1.2 mph SW1.9 kmh SW 1.2 mph1.9 kmh 30.13 in1020.3 mb - 0.00 in0.0 mm 0.00 in0.0 mm
05:30 AM 55.8°F13.2°C 52.9°F11.6°C 90% 1.2 mph SW1.9 kmh SW 2.3 mph3.7 kmh 30.14 in1020.7 mb - 0.00 in0.0 mm 0.00 in0.0 mm
05:35 AM 56.2°F13.4°C 53.0°F11.7°C 89% 2.3 mph SSW3.7 kmh SSW 2.3 mph3.7 kmh 30.14 in1020.7 mb - 0.00 in0.0 mm 0.00 in0.0 mm
05:40 AM 56.4°F13.6°C 53.2°F11.8°C 89% 2.3 mph S3.7 kmh S 2.3 mph3.7 kmh 30.14 in1020.7 mb - 0.00 in0.0 mm 0.00 in0.0 mm
05:45 AM 56.9°F13.8°C 53.7°F12.1°C 89% 2.3 mph S3.7 kmh S 3.5 mph5.6 kmh 30.13 in1020.3 mb - 0.00 in0.0 mm 0.00 in0.0 mm
05:50 AM 57.1°F13.9°C 53.6°F12.0°C 88% 3.5 mph S5.6 kmh S 6.9 mph11.1 kmh 30.13 in1020.3 mb - 0.00 in0.0 mm 0.00 in0.0 mm
05:55 AM 57.2°F14.0°C 53.4°F11.9°C 87% 3.5 mph SSW5.6 kmh SSW 3.5 mph5.6 kmh 30.13 in1020.3 mb - 0.00 in0.0 mm 0.00 in0.0 mm
06:00 AM 57.1°F13.9°C 53.6°F12.0°C 88% 2.3 mph S3.7 kmh S 4.6 mph7.4 kmh 30.13 in1020.3 mb - 0.00 in0.0 mm 0.00 in0.0 mm
06:10 AM 58.3°F14.6°C 54.5°F12.5°C 87% 2.3 mph S3.7 kmh S 3.5 mph5.6 kmh 30.13 in1020.3 mb - 0.00 in0.0 mm 0.00 in0.0 mm
06:15 AM 58.7°F14.8°C 54.6°F12.6°C 86% 2.3 mph S3.7 kmh S 3.5 mph5.6 kmh 30.13 in1020.3 mb - 0.00 in0.0 mm 0.00 in0.0 mm
06:20 AM 59.1°F15.1°C 54.6°F12.6°C 85% 4.6 mph S7.4 kmh S 4.6 mph7.4 kmh 30.14 in1020.7 mb - 0.00 in0.0 mm 0.00 in0.0 mm
06:25 AM 59.6°F15.3°C 55.1°F12.8°C 85% 4.6 mph SSW7.4 kmh SSW 4.6 mph7.4 kmh 30.14 in1020.7 mb - 0.00 in0.0 mm 0.00 in0.0 mm
06:30 AM 60.2°F15.7°C 55.7°F13.2°C 85% 2.3 mph S3.7 kmh S 6.9 mph11.1 kmh 30.14 in1020.7 mb - 0.00 in0.0 mm 0.00 in0.0 mm
06:35 AM 60.8°F16.0°C 55.9°F13.3°C 84% 3.5 mph S5.6 kmh S 5.8 mph9.3 kmh 30.14 in1020.7 mb - 0.00 in0.0 mm 0.00 in0.0 mm
06:40 AM 61.2°F16.2°C 55.7°F13.2°C 82% 4.6 mph S7.4 kmh S 6.9 mph11.1 kmh 30.14 in1020.7 mb - 0.00 in0.0 mm 0.00 in0.0 mm
06:45 AM 61.5°F16.4°C 56.0°F13.3°C 82% 5.8 mph SSW9.3 kmh SSW 8.1 mph13.0 kmh 30.14 in1020.7 mb - 0.00 in0.0 mm 0.00 in0.0 mm
06:50 AM 61.9°F16.6°C 56.3°F13.5°C 82% 4.6 mph S7.4 kmh S 6.9 mph11.1 kmh 30.14 in1020.7 mb - 0.00 in0.0 mm 0.00 in0.0 mm
06:55 AM 62.0°F16.7°C 56.1°F13.4°C 81% 4.6 mph S7.4 kmh S 6.9 mph11.1 kmh 30.14 in1020.7 mb - 0.00 in0.0 mm 0.00 in0.0 mm
07:00 AM 62.2°F16.8°C 56.3°F13.5°C 81% 4.6 mph SSW7.4 kmh SSW 5.8 mph9.3 kmh 30.14 in1020.7 mb - 0.00 in0.0 mm 0.00 in0.0 mm
07:10 AM 63.0°F17.2°C 56.4°F13.6°C 79% 6.9 mph SW11.1 kmh SW 10.4 mph16.7 kmh 30.14 in1020.7 mb - 0.00 in0.0 mm 0.00 in0.0 mm
07:15 AM 63.0°F17.2°C 56.4°F13.6°C 79% 8.1 mph SW13.0 kmh SW 10.4 mph16.7 kmh 30.14 in1020.7 mb - 0.00 in0.0 mm 0.00 in0.0 mm
07:20 AM 63.1°F17.3°C 55.8°F13.2°C 77% 6.9 mph SW11.1 kmh SW 9.2 mph14.8 kmh 30.14 in1020.7 mb - 0.00 in0.0 mm 0.00 in0.0 mm
07:25 AM 63.5°F17.5°C 56.2°F13.4°C 77% 5.8 mph SW9.3 kmh SW 10.4 mph16.7 kmh 30.14 in1020.7 mb - 0.00 in0.0 mm 0.00 in0.0 mm
07:30 AM 63.7°F17.6°C 56.0°F13.3°C 76% 9.2 mph SW14.8 kmh SW 11.5 mph18.5 kmh 30.14 in1020.7 mb - 0.00 in0.0 mm 0.00 in0.0 mm
07:35 AM 63.7°F17.6°C 56.0°F13.3°C 76% 8.1 mph SW13.0 kmh SW 11.5 mph18.5 kmh 30.14 in1020.7 mb - 0.00 in0.0 mm 0.00 in0.0 mm
07:40 AM 64.0°F17.8°C 56.3°F13.5°C 76% 6.9 mph SW11.1 kmh SW 10.4 mph16.7 kmh 30.14 in1020.7 mb - 0.00 in0.0 mm 0.00 in0.0 mm
07:45 AM 64.2°F17.9°C 56.1°F13.4°C 75% 10.4 mph SW16.7 kmh SW 12.7 mph20.4 kmh 30.14 in1020.7 mb - 0.00 in0.0 mm 0.00 in0.0 mm
07:50 AM 64.2°F17.9°C 56.5°F13.6°C 76% 11.5 mph SW18.5 kmh SW 12.7 mph20.4 kmh 30.14 in1020.7 mb - 0.00 in0.0 mm 0.00 in0.0 mm
07:55 AM 64.5°F18.1°C 56.8°F13.8°C 76% 8.1 mph SW13.0 kmh SW 11.5 mph18.5 kmh 30.15 in1021.0 mb - 0.00 in0.0 mm 0.00 in0.0 mm
08:00 AM 64.5°F18.1°C 56.4°F13.6°C 75% 10.4 mph SW16.7 kmh SW 15.0 mph24.1 kmh 30.14 in1020.7 mb - 0.00 in0.0 mm 0.00 in0.0 mm
08:10 AM 65.1°F18.4°C 57.3°F14.1°C 76% 9.2 mph SW14.8 kmh SW 13.8 mph22.2 kmh 30.15 in1021.0 mb - 0.00 in0.0 mm 0.00 in0.0 mm
08:15 AM 65.0°F18.3°C 56.5°F13.6°C 74% 9.2 mph SW14.8 kmh SW 12.7 mph20.4 kmh 30.15 in1021.0 mb - 0.00 in0.0 mm 0.00 in0.0 mm
08:20 AM 64.8°F18.2°C 56.3°F13.5°C 74% 10.4 mph SW16.7 kmh SW 10.4 mph16.7 kmh 30.15 in1021.0 mb - 0.00 in0.0 mm 0.00 in0.0 mm
08:25 AM 65.3°F18.5°C 56.8°F13.8°C 74% 10.4 mph SW16.7 kmh SW 11.5 mph18.5 kmh 30.15 in1021.0 mb - 0.00 in0.0 mm 0.00 in0.0 mm
08:30 AM 65.0°F18.3°C 56.9°F13.8°C 75% 13.8 mph WSW22.2 kmh WSW 15.0 mph24.1 kmh 30.15 in1021.0 mb - 0.00 in0.0 mm 0.00 in0.0 mm
08:35 AM 65.4°F18.6°C 57.6°F14.2°C 76% 8.1 mph SW13.0 kmh SW 13.8 mph22.2 kmh 30.15 in1021.0 mb - 0.00 in0.0 mm 0.00 in0.0 mm
08:40 AM 65.3°F18.5°C 56.8°F13.8°C 74% 12.7 mph SW20.4 kmh SW 15.0 mph24.1 kmh 30.15 in1021.0 mb - 0.00 in0.0 mm 0.00 in0.0 mm
08:45 AM 65.6°F18.7°C 57.8°F14.3°C 76% 10.4 mph SW16.7 kmh SW 15.0 mph24.1 kmh 30.15 in1021.0 mb - 0.00 in0.0 mm 0.00 in0.0 mm
08:50 AM 66.2°F19.0°C 57.7°F14.3°C 74% 9.2 mph WSW14.8 kmh WSW 11.5 mph18.5 kmh 30.14 in1020.7 mb - 0.00 in0.0 mm 0.00 in0.0 mm
08:55 AM 66.3°F19.1°C 57.8°F14.3°C 74% 9.2 mph SW14.8 kmh SW 11.5 mph18.5 kmh 30.15 in1021.0 mb - 0.00 in0.0 mm 0.00 in0.0 mm
09:00 AM 65.4°F18.6°C 58.0°F14.4°C 77% 5.8 mph WSW9.3 kmh WSW 11.5 mph18.5 kmh 30.15 in1021.0 mb - 0.00 in0.0 mm 0.00 in0.0 mm
09:10 AM 66.4°F19.1°C 58.2°F14.6°C 75% 10.4 mph SW16.7 kmh SW 12.7 mph20.4 kmh 30.15 in1021.0 mb - 0.00 in0.0 mm 0.00 in0.0 mm
09:15 AM 66.5°F19.2°C 57.2°F14.0°C 72% 10.4 mph WSW16.7 kmh WSW 11.5 mph18.5 kmh 30.15 in1021.0 mb - 0.00 in0.0 mm 0.00 in0.0 mm
09:20 AM 66.5°F19.2°C 57.2°F14.0°C 72% 8.1 mph SW13.0 kmh SW 12.7 mph20.4 kmh 30.15 in1021.0 mb - 0.00 in0.0 mm 0.00 in0.0 mm
09:25 AM 66.4°F19.1°C 58.2°F14.6°C 75% 10.4 mph WSW16.7 kmh WSW 12.7 mph20.4 kmh 30.15 in1021.0 mb - 0.00 in0.0 mm 0.00 in0.0 mm
09:30 AM 67.6°F19.8°C 57.8°F14.3°C 71% 9.2 mph SW14.8 kmh SW 11.5 mph18.5 kmh 30.15 in1021.0 mb - 0.00 in0.0 mm 0.00 in0.0 mm
09:35 AM 67.4°F19.7°C 56.9°F13.8°C 69% 11.5 mph SW18.5 kmh SW 16.1 mph25.9 kmh 30.15 in1021.0 mb - 0.00 in0.0 mm 0.00 in0.0 mm
09:40 AM 67.9°F19.9°C 57.8°F14.3°C 70% 6.9 mph SW11.1 kmh SW 11.5 mph18.5 kmh 30.15 in1021.0 mb - 0.00 in0.0 mm 0.00 in0.0 mm
09:45 AM 68.4°F20.2°C 57.9°F14.4°C 69% 5.8 mph SW9.3 kmh SW 11.5 mph18.5 kmh 30.15 in1021.0 mb - 0.00 in0.0 mm 0.00 in0.0 mm
09:50 AM 69.4°F20.8°C 58.8°F14.9°C 69% 10.4 mph WSW16.7 kmh WSW 15.0 mph24.1 kmh 30.15 in1021.0 mb - 0.00 in0.0 mm 0.00 in0.0 mm
09:55 AM 69.0°F20.6°C 57.2°F14.0°C 66% 9.2 mph SW14.8 kmh SW 11.5 mph18.5 kmh 30.15 in1021.0 mb - 0.00 in0.0 mm 0.00 in0.0 mm
10:00 AM 68.7°F20.4°C 57.3°F14.1°C 67% 12.7 mph WSW20.4 kmh WSW 15.0 mph24.1 kmh 30.15 in1021.0 mb - 0.00 in0.0 mm 0.00 in0.0 mm
10:10 AM 69.3°F20.7°C 56.1°F13.4°C 63% 12.7 mph WSW20.4 kmh WSW 16.1 mph25.9 kmh 30.15 in1021.0 mb - 0.00 in0.0 mm 0.00 in0.0 mm
10:15 AM 68.7°F20.4°C 56.4°F13.6°C 65% 10.4 mph WSW16.7 kmh WSW 11.5 mph18.5 kmh 30.15 in1021.0 mb - 0.00 in0.0 mm 0.00 in0.0 mm
10:20 AM 68.7°F20.4°C 56.5°F13.6°C 65% 13.8 mph WSW22.2 kmh WSW 16.1 mph25.9 kmh 30.15 in1021.0 mb - 0.00 in0.0 mm 0.00 in0.0 mm
10:25 AM 69.1°F20.6°C 56.0°F13.3°C 63% 11.5 mph SW18.5 kmh SW 16.1 mph25.9 kmh 30.15 in1021.0 mb - 0.00 in0.0 mm 0.00 in0.0 mm
10:30 AM 69.1°F20.6°C 56.4°F13.6°C 64% 11.5 mph SW18.5 kmh SW 17.3 mph27.8 kmh 30.15 in1021.0 mb - 0.00 in0.0 mm 0.00 in0.0 mm
10:35 AM 69.5°F20.8°C 55.9°F13.3°C 62% 12.7 mph WSW20.4 kmh WSW 12.7 mph20.4 kmh 30.15 in1021.0 mb - 0.00 in0.0 mm 0.00 in0.0 mm
10:40 AM 70.1°F21.2°C 56.5°F13.6°C 62% 10.4 mph SW16.7 kmh SW 16.1 mph25.9 kmh 30.15 in1021.0 mb - 0.00 in0.0 mm 0.00 in0.0 mm
10:45 AM 69.8°F21.0°C 56.2°F13.4°C 62% 11.5 mph WSW18.5 kmh WSW 12.7 mph20.4 kmh 30.15 in1021.0 mb - 0.00 in0.0 mm 0.00 in0.0 mm
10:50 AM 70.6°F21.4°C 56.9°F13.8°C 62% 12.7 mph WSW20.4 kmh WSW 17.3 mph27.8 kmh 30.15 in1021.0 mb - 0.00 in0.0 mm 0.00 in0.0 mm
10:55 AM 70.1°F21.2°C 55.6°F13.1°C 60% 13.8 mph WSW22.2 kmh WSW 16.1 mph25.9 kmh 30.15 in1021.0 mb - 0.00 in0.0 mm 0.00 in0.0 mm
11:00 AM 70.5°F21.4°C 57.3°F14.1°C 63% 9.2 mph SW14.8 kmh SW 11.5 mph18.5 kmh 30.15 in1021.0 mb - 0.00 in0.0 mm 0.00 in0.0 mm
11:10 AM 70.5°F21.4°C 56.0°F13.3°C 60% 12.7 mph W20.4 kmh W 17.3 mph27.8 kmh 30.15 in1021.0 mb - 0.00 in0.0 mm 0.00 in0.0 mm
11:15 AM 70.9°F21.6°C 55.4°F13.0°C 58% 12.7 mph WSW20.4 kmh WSW 15.0 mph24.1 kmh 30.15 in1021.0 mb - 0.00 in0.0 mm 0.00 in0.0 mm
11:20 AM 70.9°F21.6°C 55.4°F13.0°C 58% 13.8 mph WSW22.2 kmh WSW 18.4 mph29.6 kmh 30.15 in1021.0 mb - 0.00 in0.0 mm 0.00 in0.0 mm
11:25 AM 70.6°F21.4°C 56.0°F13.3°C 60% 8.1 mph SW13.0 kmh SW 10.4 mph16.7 kmh 30.15 in1021.0 mb - 0.00 in0.0 mm 0.00 in0.0 mm
11:30 AM 70.8°F21.6°C 55.8°F13.2°C 59% 12.7 mph WSW20.4 kmh WSW 15.0 mph24.1 kmh 30.15 in1021.0 mb - 0.00 in0.0 mm 0.00 in0.0 mm
11:35 AM 70.9°F21.6°C 56.3°F13.5°C 60% 10.4 mph SW16.7 kmh SW 17.3 mph27.8 kmh 30.15 in1021.0 mb - 0.00 in0.0 mm 0.00 in0.0 mm
11:40 AM 71.0°F21.7°C 56.4°F13.6°C 60% 10.4 mph WSW16.7 kmh WSW 11.5 mph18.5 kmh 30.15 in1021.0 mb - 0.00 in0.0 mm 0.00 in0.0 mm
11:45 AM 71.4°F21.9°C 56.3°F13.5°C 59% 11.5 mph SW18.5 kmh SW 17.3 mph27.8 kmh 30.15 in1021.0 mb - 0.00 in0.0 mm 0.00 in0.0 mm
11:50 AM 71.3°F21.8°C 57.1°F13.9°C 61% 11.5 mph SW18.5 kmh SW 15.0 mph24.1 kmh 30.15 in1021.0 mb - 0.00 in0.0 mm 0.00 in0.0 mm
11:55 AM 72.2°F22.3°C 57.5°F14.2°C 60% 8.1 mph SW13.0 kmh SW 11.5 mph18.5 kmh 30.15 in1021.0 mb - 0.00 in0.0 mm 0.00 in0.0 mm
12:00 PM 71.5°F21.9°C 56.9°F13.8°C 60% 12.7 mph W20.4 kmh W 16.1 mph25.9 kmh 30.15 in1021.0 mb - 0.00 in0.0 mm 0.00 in0.0 mm
12:10 PM 70.4°F21.3°C 55.9°F13.3°C 60% 8.1 mph WSW13.0 kmh WSW 13.8 mph22.2 kmh 30.15 in1021.0 mb - 0.00 in0.0 mm 0.00 in0.0 mm
12:15 PM 71.6°F22.0°C 57.8°F14.3°C 62% 8.1 mph WSW13.0 kmh WSW 11.5 mph18.5 kmh 30.15 in1021.0 mb - 0.00 in0.0 mm 0.00 in0.0 mm
12:20 PM 70.6°F21.4°C 56.1°F13.4°C 60% 12.7 mph WSW20.4 kmh WSW 12.7 mph20.4 kmh 30.15 in1021.0 mb - 0.00 in0.0 mm 0.00 in0.0 mm
12:25 PM 71.0°F21.7°C 55.9°F13.3°C 59% 13.8 mph WSW22.2 kmh WSW 16.1 mph25.9 kmh 30.15 in1021.0 mb - 0.00 in0.0 mm 0.00 in0.0 mm
12:30 PM 70.5°F21.4°C 56.4°F13.6°C 61% 9.2 mph WSW14.8 kmh WSW 13.8 mph22.2 kmh 30.15 in1021.0 mb - 0.00 in0.0 mm 0.00 in0.0 mm
12:35 PM 71.0°F21.7°C 55.9°F13.3°C 59% 11.5 mph WSW18.5 kmh WSW 11.5 mph18.5 kmh 30.15 in1021.0 mb - 0.00 in0.0 mm 0.00 in0.0 mm
12:40 PM 71.2°F21.8°C 56.2°F13.4°C 59% 10.4 mph WSW16.7 kmh WSW 12.7 mph20.4 kmh 30.15 in1021.0 mb - 0.00 in0.0 mm 0.00 in0.0 mm
12:45 PM 70.9°F21.6°C 56.7°F13.7°C 61% 10.4 mph WSW16.7 kmh WSW 15.0 mph24.1 kmh 30.15 in1021.0 mb - 0.00 in0.0 mm 0.00 in0.0 mm
12:50 PM 71.5°F21.9°C 56.4°F13.6°C 59% 11.5 mph WSW18.5 kmh WSW 12.7 mph20.4 kmh 30.15 in1021.0 mb - 0.00 in0.0 mm 0.00 in0.0 mm
12:55 PM 71.5°F21.9°C 56.4°F13.6°C 59% 10.4 mph SW16.7 kmh SW 13.8 mph22.2 kmh 30.15 in1021.0 mb - 0.00 in0.0 mm 0.00 in0.0 mm
01:00 PM 72.5°F22.5°C 56.9°F13.8°C 58% 8.1 mph WSW13.0 kmh WSW 11.5 mph18.5 kmh 30.15 in1021.0 mb - 0.00 in0.0 mm 0.00 in0.0 mm
01:10 PM 71.9°F22.2°C 56.8°F13.8°C 59% 9.2 mph WSW14.8 kmh WSW 13.8 mph22.2 kmh 30.15 in1021.0 mb - 0.00 in0.0 mm 0.00 in0.0 mm
01:15 PM 71.2°F21.8°C 56.2°F13.4°C 59% 9.2 mph WSW14.8 kmh WSW 15.0 mph24.1 kmh 30.15 in1021.0 mb - 0.00 in0.0 mm 0.00 in0.0 mm
01:20 PM 70.8°F21.6°C 55.3°F12.9°C 58% 9.2 mph WSW14.8 kmh WSW 10.4 mph16.7 kmh 30.15 in1021.0 mb - 0.00 in0.0 mm 0.00 in0.0 mm
01:25 PM 70.9°F21.6°C 56.3°F13.5°C 60% 9.2 mph WSW14.8 kmh WSW 11.5 mph18.5 kmh 30.15 in1021.0 mb - 0.00 in0.0 mm 0.00 in0.0 mm
01:30 PM 71.2°F21.8°C 57.5°F14.2°C 62% 8.1 mph WSW13.0 kmh WSW 10.4 mph16.7 kmh 30.15 in1021.0 mb - 0.00 in0.0 mm 0.00 in0.0 mm
01:35 PM 71.3°F21.8°C 56.7°F13.7°C 60% 6.9 mph WSW11.1 kmh WSW 10.4 mph16.7 kmh 30.14 in1020.7 mb - 0.00 in0.0 mm 0.00 in0.0 mm
01:40 PM 72.0°F22.2°C 56.4°F13.6°C 58% 8.1 mph WSW13.0 kmh WSW 10.4 mph16.7 kmh 30.14 in1020.7 mb - 0.00 in0.0 mm 0.00 in0.0 mm
01:45 PM 71.9°F22.2°C 57.3°F14.1°C 60% 9.2 mph W14.8 kmh W 11.5 mph18.5 kmh 30.14 in1020.7 mb - 0.00 in0.0 mm 0.00 in0.0 mm
01:50 PM 72.4°F22.4°C 56.8°F13.8°C 58% 8.1 mph WSW13.0 kmh WSW 10.4 mph16.7 kmh 30.14 in1020.7 mb - 0.00 in0.0 mm 0.00 in0.0 mm
01:55 PM 72.8°F22.7°C 55.2°F12.9°C 54% 9.2 mph SW14.8 kmh SW 11.5 mph18.5 kmh 30.14 in1020.7 mb - 0.00 in0.0 mm 0.00 in0.0 mm
02:00 PM 72.4°F22.4°C 57.2°F14.0°C 59% 10.4 mph WSW16.7 kmh WSW 16.1 mph25.9 kmh 30.14 in1020.7 mb - 0.00 in0.0 mm 0.00 in0.0 mm
02:10 PM 73.3°F22.9°C 56.7°F13.7°C 56% 11.5 mph WSW18.5 kmh WSW 13.8 mph22.2 kmh 30.14 in1020.7 mb - 0.00 in0.0 mm 0.00 in0.0 mm
02:15 PM 73.1°F22.8°C 56.0°F13.3°C 55% 5.8 mph SSW9.3 kmh SSW 10.4 mph16.7 kmh 30.14 in1020.7 mb - 0.00 in0.0 mm 0.00 in0.0 mm
02:20 PM 72.8°F22.7°C 55.7°F13.2°C 55% 9.2 mph WSW14.8 kmh WSW 11.5 mph18.5 kmh 30.14 in1020.7 mb - 0.00 in0.0 mm 0.00 in0.0 mm
02:25 PM 73.0°F22.8°C 56.8°F13.8°C 57% 8.1 mph WSW13.0 kmh WSW 10.4 mph16.7 kmh 30.14 in1020.7 mb - 0.00 in0.0 mm 0.00 in0.0 mm
02:30 PM 73.1°F22.8°C 57.4°F14.1°C 58% 6.9 mph SW11.1 kmh SW 12.7 mph20.4 kmh 30.14 in1020.7 mb - 0.00 in0.0 mm 0.00 in0.0 mm
02:35 PM 73.3°F22.9°C 55.6°F13.1°C 54% 9.2 mph WSW14.8 kmh WSW 11.5 mph18.5 kmh 30.14 in1020.7 mb - 0.00 in0.0 mm 0.00 in0.0 mm
02:40 PM 73.5°F23.1°C 56.8°F13.8°C 56% 9.2 mph W14.8 kmh W 10.4 mph16.7 kmh 30.14 in1020.7 mb - 0.00 in0.0 mm 0.00 in0.0 mm
02:45 PM 73.3°F22.9°C 56.6°F13.7°C 56% 10.4 mph WSW16.7 kmh WSW 15.0 mph24.1 kmh 30.14 in1020.7 mb - 0.00 in0.0 mm 0.00 in0.0 mm
02:50 PM 73.4°F23.0°C 55.7°F13.2°C 54% 9.2 mph WSW14.8 kmh WSW 10.4 mph16.7 kmh 30.14 in1020.7 mb - 0.00 in0.0 mm 0.00 in0.0 mm
02:55 PM 72.3°F22.4°C 53.7°F12.1°C 52% 4.6 mph SW7.4 kmh SW 5.8 mph9.3 kmh 30.14 in1020.7 mb - 0.00 in0.0 mm 0.00 in0.0 mm
03:00 PM 73.5°F23.1°C 57.8°F14.3°C 58% 4.6 mph WSW7.4 kmh WSW 11.5 mph18.5 kmh 30.14 in1020.7 mb - 0.00 in0.0 mm 0.00 in0.0 mm
03:10 PM 73.3°F22.9°C 56.2°F13.4°C 55% 5.8 mph SSW9.3 kmh SSW 8.1 mph13.0 kmh 30.14 in1020.7 mb - 0.00 in0.0 mm 0.00 in0.0 mm
03:15 PM 72.8°F22.7°C 57.2°F14.0°C 58% 3.5 mph SW5.6 kmh SW 9.2 mph14.8 kmh 30.14 in1020.7 mb - 0.00 in0.0 mm 0.00 in0.0 mm
03:20 PM 73.2°F22.9°C 55.0°F12.8°C 53% 9.2 mph SW14.8 kmh SW 12.7 mph20.4 kmh 30.14 in1020.7 mb - 0.00 in0.0 mm 0.00 in0.0 mm
03:25 PM 73.2°F22.9°C 57.1°F13.9°C 57% 6.9 mph SW11.1 kmh SW 12.7 mph20.4 kmh 30.14 in1020.7 mb - 0.00 in0.0 mm 0.00 in0.0 mm
03:30 PM 73.5°F23.1°C 56.3°F13.5°C 55% 6.9 mph SW11.1 kmh SW 11.5 mph18.5 kmh 30.14 in1020.7 mb - 0.00 in0.0 mm 0.00 in0.0 mm
03:35 PM 73.1°F22.8°C 56.4°F13.6°C 56% 6.9 mph WSW11.1 kmh WSW 9.2 mph14.8 kmh 30.14 in1020.7 mb - 0.00 in0.0 mm 0.00 in0.0 mm
03:40 PM 72.5°F22.5°C 56.4°F13.6°C 57% 3.5 mph S5.6 kmh S 4.6 mph7.4 kmh 30.13 in1020.3 mb - 0.00 in0.0 mm 0.00 in0.0 mm
03:45 PM 73.1°F22.8°C 55.4°F13.0°C 54% 8.1 mph SW13.0 kmh SW 11.5 mph18.5 kmh 30.13 in1020.3 mb - 0.00 in0.0 mm 0.00 in0.0 mm
03:50 PM 72.9°F22.7°C 56.3°F13.5°C 56% 6.9 mph SW11.1 kmh SW 9.2 mph14.8 kmh 30.14 in1020.7 mb - 0.00 in0.0 mm 0.00 in0.0 mm
03:55 PM 73.3°F22.9°C 54.6°F12.6°C 52% 5.8 mph SSW9.3 kmh SSW 8.1 mph13.0 kmh 30.13 in1020.3 mb - 0.00 in0.0 mm 0.00 in0.0 mm
04:00 PM 73.6°F23.1°C 55.9°F13.3°C 54% 5.8 mph SW9.3 kmh SW 6.9 mph11.1 kmh 30.13 in1020.3 mb - 0.00 in0.0 mm 0.00 in0.0 mm
04:10 PM 72.1°F22.3°C 55.5°F13.1°C 56% 3.5 mph SW5.6 kmh SW 4.6 mph7.4 kmh 30.13 in1020.3 mb - 0.00 in0.0 mm 0.00 in0.0 mm
04:15 PM 72.5°F22.5°C 55.9°F13.3°C 56% 5.8 mph WSW9.3 kmh WSW 9.2 mph14.8 kmh 30.13 in1020.3 mb - 0.00 in0.0 mm 0.00 in0.0 mm
04:20 PM 72.8°F22.7°C 55.2°F12.9°C 54% 4.6 mph SW7.4 kmh SW 5.8 mph9.3 kmh 30.13 in1020.3 mb - 0.00 in0.0 mm 0.00 in0.0 mm
04:25 PM 72.4°F22.4°C 55.8°F13.2°C 56% 5.8 mph SSW9.3 kmh SSW 6.9 mph11.1 kmh 30.13 in1020.3 mb - 0.00 in0.0 mm 0.00 in0.0 mm
04:30 PM 73.2°F22.9°C 55.6°F13.1°C 54% 6.9 mph WSW11.1 kmh WSW 9.2 mph14.8 kmh 30.13 in1020.3 mb - 0.00 in0.0 mm 0.00 in0.0 mm
04:35 PM 73.5°F23.1°C 55.3°F12.9°C 53% 3.5 mph SW5.6 kmh SW 11.5 mph18.5 kmh 30.13 in1020.3 mb - 0.00 in0.0 mm 0.00 in0.0 mm
04:40 PM 74.0°F23.3°C 55.8°F13.2°C 53% 5.8 mph WSW9.3 kmh WSW 10.4 mph16.7 kmh 30.12 in1020.0 mb - 0.00 in0.0 mm 0.00 in0.0 mm
04:45 PM 73.7°F23.2°C 56.0°F13.3°C 54% 6.9 mph SW11.1 kmh SW 9.2 mph14.8 kmh 30.12 in1020.0 mb - 0.00 in0.0 mm 0.00 in0.0 mm
04:50 PM 73.4°F23.0°C 55.7°F13.2°C 54% 4.6 mph WSW7.4 kmh WSW 9.2 mph14.8 kmh 30.12 in1020.0 mb - 0.00 in0.0 mm 0.00 in0.0 mm
04:55 PM 73.9°F23.3°C 56.2°F13.4°C 54% 5.8 mph SSW9.3 kmh SSW 8.1 mph13.0 kmh 30.12 in1020.0 mb - 0.00 in0.0 mm 0.00 in0.0 mm
05:00 PM 73.6°F23.1°C 54.9°F12.7°C 52% 5.8 mph SW9.3 kmh SW 8.1 mph13.0 kmh 30.12 in1020.0 mb - 0.00 in0.0 mm 0.00 in0.0 mm
05:10 PM 73.7°F23.2°C 56.0°F13.3°C 54% 8.1 mph WSW13.0 kmh WSW 10.4 mph16.7 kmh 30.11 in1019.6 mb - 0.00 in0.0 mm 0.00 in0.0 mm
05:15 PM 73.7°F23.2°C 55.5°F13.1°C 53% 3.5 mph SSW5.6 kmh SSW 5.8 mph9.3 kmh 30.12 in1020.0 mb - 0.00 in0.0 mm 0.00 in0.0 mm
05:20 PM 74.0°F23.3°C 54.7°F12.6°C 51% 2.3 mph S3.7 kmh S 5.8 mph9.3 kmh 30.11 in1019.6 mb - 0.00 in0.0 mm 0.00 in0.0 mm
05:25 PM 74.2°F23.4°C 57.0°F13.9°C 55% 4.6 mph WSW7.4 kmh WSW 8.1 mph13.0 kmh 30.11 in1019.6 mb - 0.00 in0.0 mm 0.00 in0.0 mm
05:30 PM 74.1°F23.4°C 56.4°F13.6°C 54% 5.8 mph W9.3 kmh W 6.9 mph11.1 kmh 30.11 in1019.6 mb - 0.00 in0.0 mm 0.00 in0.0 mm
05:35 PM 74.1°F23.4°C 55.3°F12.9°C 52% 4.6 mph WSW7.4 kmh WSW 8.1 mph13.0 kmh 30.11 in1019.6 mb - 0.00 in0.0 mm 0.00 in0.0 mm
05:40 PM 74.1°F23.4°C 55.3°F12.9°C 52% 1.2 mph SW1.9 kmh SW 3.5 mph5.6 kmh 30.11 in1019.6 mb - 0.00 in0.0 mm 0.00 in0.0 mm
05:45 PM 74.4°F23.6°C 56.7°F13.7°C 54% 2.3 mph SE3.7 kmh SE 9.2 mph14.8 kmh 30.11 in1019.6 mb - 0.00 in0.0 mm 0.00 in0.0 mm
05:50 PM 72.2°F22.3°C 57.1°F13.9°C 59% 8.1 mph SE13.0 kmh SE 11.5 mph18.5 kmh 30.11 in1019.6 mb - 0.00 in0.0 mm 0.00 in0.0 mm
05:55 PM 70.6°F21.4°C 56.9°F13.8°C 62% 4.6 mph SE7.4 kmh SE 6.9 mph11.1 kmh 30.11 in1019.6 mb - 0.00 in0.0 mm 0.00 in0.0 mm
06:00 PM 70.2°F21.2°C 57.4°F14.1°C 64% 3.5 mph SE5.6 kmh SE 3.5 mph5.6 kmh 30.11 in1019.6 mb - 0.00 in0.0 mm 0.00 in0.0 mm
06:10 PM 70.8°F21.6°C 58.0°F14.4°C 64% 4.6 mph SE7.4 kmh SE 6.9 mph11.1 kmh 30.11 in1019.6 mb - 0.00 in0.0 mm 0.00 in0.0 mm
06:15 PM 70.5°F21.4°C 57.3°F14.1°C 63% 4.6 mph SE7.4 kmh SE 8.1 mph13.0 kmh 30.11 in1019.6 mb - 0.00 in0.0 mm 0.00 in0.0 mm
06:20 PM 70.3°F21.3°C 57.1°F13.9°C 63% 4.6 mph SE7.4 kmh SE 6.9 mph11.1 kmh 30.11 in1019.6 mb - 0.00 in0.0 mm 0.00 in0.0 mm
06:25 PM 70.2°F21.2°C 57.0°F13.9°C 63% 4.6 mph SE7.4 kmh SE 6.9 mph11.1 kmh 30.11 in1019.6 mb - 0.00 in0.0 mm 0.00 in0.0 mm
06:30 PM 70.1°F21.2°C 57.0°F13.9°C 63% 4.6 mph SE7.4 kmh SE 8.1 mph13.0 kmh 30.11 in1019.6 mb - 0.00 in0.0 mm 0.00 in0.0 mm
06:35 PM 69.8°F21.0°C 57.1°F13.9°C 64% 3.5 mph SE5.6 kmh SE 5.8 mph9.3 kmh 30.11 in1019.6 mb - 0.00 in0.0 mm 0.00 in0.0 mm
06:40 PM 69.7°F20.9°C 57.0°F13.9°C 64% 4.6 mph SE7.4 kmh SE 9.2 mph14.8 kmh 30.11 in1019.6 mb - 0.00 in0.0 mm 0.00 in0.0 mm
06:45 PM 69.3°F20.7°C 57.0°F13.9°C 65% 4.6 mph SE7.4 kmh SE 6.9 mph11.1 kmh 30.11 in1019.6 mb - 0.00 in0.0 mm 0.00 in0.0 mm
06:50 PM 69.0°F20.6°C 57.6°F14.2°C 67% 2.3 mph SE3.7 kmh SE 3.5 mph5.6 kmh 30.11 in1019.6 mb - 0.00 in0.0 mm 0.00 in0.0 mm
06:55 PM 69.3°F20.7°C 57.9°F14.4°C 67% 3.5 mph SE5.6 kmh SE 3.5 mph5.6 kmh 30.11 in1019.6 mb - 0.00 in0.0 mm 0.00 in0.0 mm
07:00 PM 69.3°F20.7°C 57.0°F13.9°C 65% 4.6 mph SE7.4 kmh SE 9.2 mph14.8 kmh 30.11 in1019.6 mb - 0.00 in0.0 mm 0.00 in0.0 mm
07:10 PM 68.8°F20.4°C 57.0°F13.9°C 66% 5.8 mph SE9.3 kmh SE 10.4 mph16.7 kmh 30.11 in1019.6 mb - 0.00 in0.0 mm 0.00 in0.0 mm
07:15 PM 68.6°F20.3°C 56.8°F13.8°C 66% 5.8 mph SE9.3 kmh SE 9.2 mph14.8 kmh 30.11 in1019.6 mb - 0.00 in0.0 mm 0.00 in0.0 mm
07:20 PM 68.4°F20.2°C 56.6°F13.7°C 66% 4.6 mph SE7.4 kmh SE 10.4 mph16.7 kmh 30.10 in1019.3 mb - 0.00 in0.0 mm 0.00 in0.0 mm
07:25 PM 68.2°F20.1°C 56.4°F13.6°C 66% 4.6 mph SE7.4 kmh SE 8.1 mph13.0 kmh 30.10 in1019.3 mb - 0.00 in0.0 mm 0.00 in0.0 mm
07:30 PM 67.9°F19.9°C 56.6°F13.7°C 67% 5.8 mph SE9.3 kmh SE 8.1 mph13.0 kmh 30.11 in1019.6 mb - 0.00 in0.0 mm 0.00 in0.0 mm
07:35 PM 67.7°F19.8°C 56.7°F13.7°C 68% 4.6 mph SE7.4 kmh SE 6.9 mph11.1 kmh 30.10 in1019.3 mb - 0.00 in0.0 mm 0.00 in0.0 mm
07:40 PM 67.5°F19.7°C 56.9°F13.8°C 69% 4.6 mph SE7.4 kmh SE 9.2 mph14.8 kmh 30.10 in1019.3 mb - 0.00 in0.0 mm 0.00 in0.0 mm
07:45 PM 67.3°F19.6°C 56.8°F13.8°C 69% 4.6 mph SE7.4 kmh SE 4.6 mph7.4 kmh 30.10 in1019.3 mb - 0.00 in0.0 mm 0.00 in0.0 mm
07:50 PM 67.1°F19.5°C 57.0°F13.9°C 70% 3.5 mph ESE5.6 kmh ESE 8.1 mph13.0 kmh 30.10 in1019.3 mb - 0.00 in0.0 mm 0.00 in0.0 mm
07:55 PM 66.7°F19.3°C 57.0°F13.9°C 71% 2.3 mph E3.7 kmh E 5.8 mph9.3 kmh 30.10 in1019.3 mb - 0.00 in0.0 mm 0.00 in0.0 mm
08:00 PM 66.3°F19.1°C 57.0°F13.9°C 72% 2.3 mph SE3.7 kmh SE 4.6 mph7.4 kmh 30.10 in1019.3 mb - 0.00 in0.0 mm 0.00 in0.0 mm
08:10 PM 66.1°F18.9°C 57.1°F13.9°C 73% 3.5 mph ESE5.6 kmh ESE 3.5 mph5.6 kmh 30.09 in1019.0 mb - 0.00 in0.0 mm 0.00 in0.0 mm
08:15 PM 65.9°F18.8°C 57.0°F13.9°C 73% 3.5 mph SE5.6 kmh SE 6.9 mph11.1 kmh 30.09 in1019.0 mb - 0.00 in0.0 mm 0.00 in0.0 mm
08:20 PM 65.7°F18.7°C 57.2°F14.0°C 74% 3.5 mph SE5.6 kmh SE 3.5 mph5.6 kmh 30.09 in1019.0 mb - 0.00 in0.0 mm 0.00 in0.0 mm
08:25 PM 65.4°F18.6°C 56.9°F13.8°C 74% 6.9 mph SE11.1 kmh SE 10.4 mph16.7 kmh 30.09 in1019.0 mb - 0.00 in0.0 mm 0.00 in0.0 mm
08:30 PM 65.2°F18.4°C 56.7°F13.7°C 74% 5.8 mph SE9.3 kmh SE 9.2 mph14.8 kmh 30.10 in1019.3 mb - 0.00 in0.0 mm 0.00 in0.0 mm
08:35 PM 65.0°F18.3°C 56.8°F13.8°C 75% 4.6 mph SE7.4 kmh SE 8.1 mph13.0 kmh 30.09 in1019.0 mb - 0.00 in0.0 mm 0.00 in0.0 mm
08:40 PM 64.7°F18.2°C 56.9°F13.8°C 76% 4.6 mph SE7.4 kmh SE 6.9 mph11.1 kmh 30.09 in1019.0 mb - 0.00 in0.0 mm 0.00 in0.0 mm
08:45 PM 64.5°F18.1°C 56.8°F13.8°C 76% 2.3 mph SE3.7 kmh SE 3.5 mph5.6 kmh 30.09 in1019.0 mb - 0.00 in0.0 mm 0.00 in0.0 mm
08:50 PM 64.2°F17.9°C 56.8°F13.8°C 77% 3.5 mph SE5.6 kmh SE 3.5 mph5.6 kmh 30.09 in1019.0 mb - 0.00 in0.0 mm 0.00 in0.0 mm
08:55 PM 63.9°F17.7°C 56.9°F13.8°C 78% 2.3 mph SE3.7 kmh SE 3.5 mph5.6 kmh 30.09 in1019.0 mb - 0.00 in0.0 mm 0.00 in0.0 mm
09:00 PM 63.7°F17.6°C 56.7°F13.7°C 78% 3.5 mph SE5.6 kmh SE 8.1 mph13.0 kmh 30.09 in1019.0 mb - 0.00 in0.0 mm 0.00 in0.0 mm
09:10 PM 63.2°F17.3°C 56.6°F13.7°C 79% 2.3 mph ESE3.7 kmh ESE 3.5 mph5.6 kmh 30.09 in1019.0 mb - 0.00 in0.0 mm 0.00 in0.0 mm
09:15 PM 62.8°F17.1°C 56.6°F13.7°C 80% 2.3 mph ESE3.7 kmh ESE 3.5 mph5.6 kmh 30.09 in1019.0 mb - 0.00 in0.0 mm 0.00 in0.0 mm
09:20 PM 62.6°F17.0°C 56.3°F13.5°C 80% 1.2 mph ESE1.9 kmh ESE 2.3 mph3.7 kmh 30.09 in1019.0 mb - 0.00 in0.0 mm 0.00 in0.0 mm
09:25 PM 62.5°F16.9°C 56.2°F13.4°C 80% 2.3 mph ESE3.7 kmh ESE 3.5 mph5.6 kmh 30.09 in1019.0 mb - 0.00 in0.0 mm 0.00 in0.0 mm
09:30 PM 62.3°F16.8°C 56.1°F13.4°C 80% 1.2 mph E1.9 kmh E 3.5 mph5.6 kmh 30.09 in1019.0 mb - 0.00 in0.0 mm 0.00 in0.0 mm
09:35 PM 62.1°F16.7°C 55.9°F13.3°C 80% 1.2 mph ESE1.9 kmh ESE 3.5 mph5.6 kmh 30.09 in1019.0 mb - 0.00 in0.0 mm 0.00 in0.0 mm
09:40 PM 62.0°F16.7°C 55.8°F13.2°C 80% 2.3 mph ESE3.7 kmh ESE 3.5 mph5.6 kmh 30.09 in1019.0 mb - 0.00 in0.0 mm 0.00 in0.0 mm
09:45 PM 61.9°F16.6°C 55.6°F13.1°C 80% 2.3 mph SE3.7 kmh SE 3.5 mph5.6 kmh 30.08 in1018.6 mb - 0.00 in0.0 mm 0.00 in0.0 mm
09:50 PM 61.7°F16.5°C 55.5°F13.1°C 80% 2.3 mph ESE3.7 kmh ESE 3.5 mph5.6 kmh 30.08 in1018.6 mb - 0.00 in0.0 mm 0.00 in0.0 mm
09:55 PM 61.8°F16.6°C 55.2°F12.9°C 79% 2.3 mph E3.7 kmh E 4.6 mph7.4 kmh 30.08 in1018.6 mb - 0.00 in0.0 mm 0.00 in0.0 mm
10:00 PM 61.8°F16.6°C 55.2°F12.9°C 79% 1.2 mph E1.9 kmh E 3.5 mph5.6 kmh 30.08 in1018.6 mb - 0.00 in0.0 mm 0.00 in0.0 mm
10:10 PM 61.7°F16.5°C 55.5°F13.1°C 80% 2.3 mph ESE3.7 kmh ESE 3.5 mph5.6 kmh 30.08 in1018.6 mb - 0.00 in0.0 mm 0.00 in0.0 mm
10:15 PM 61.6°F16.4°C 55.4°F13.0°C 80% 2.3 mph ESE3.7 kmh ESE 3.5 mph5.6 kmh 30.08 in1018.6 mb - 0.00 in0.0 mm 0.00 in0.0 mm
10:20 PM 61.5°F16.4°C 55.3°F12.9°C 80% 2.3 mph E3.7 kmh E 3.5 mph5.6 kmh 30.08 in1018.6 mb - 0.00 in0.0 mm 0.00 in0.0 mm
10:25 PM 61.5°F16.4°C 55.6°F13.1°C 81% 2.3 mph ESE3.7 kmh ESE 3.5 mph5.6 kmh 30.08 in1018.6 mb - 0.00 in0.0 mm 0.00 in0.0 mm
10:30 PM 61.6°F16.4°C 55.7°F13.2°C 81% 2.3 mph ESE3.7 kmh ESE 3.5 mph5.6 kmh 30.08 in1018.6 mb - 0.00 in0.0 mm 0.00 in0.0 mm
10:35 PM 61.6°F16.4°C 55.7°F13.2°C 81% 2.3 mph SE3.7 kmh SE 3.5 mph5.6 kmh 30.08 in1018.6 mb - 0.00 in0.0 mm 0.00 in0.0 mm
10:40 PM 61.6°F16.4°C 55.7°F13.2°C 81% 2.3 mph ESE3.7 kmh ESE 4.6 mph7.4 kmh 30.08 in1018.6 mb - 0.00 in0.0 mm 0.00 in0.0 mm
10:45 PM 61.8°F16.6°C 56.2°F13.4°C 82% 2.3 mph ESE3.7 kmh ESE 3.5 mph5.6 kmh 30.07 in1018.3 mb - 0.00 in0.0 mm 0.00 in0.0 mm
10:50 PM 61.9°F16.6°C 56.4°F13.6°C 82% 3.5 mph SE5.6 kmh SE 4.6 mph7.4 kmh 30.07 in1018.3 mb - 0.00 in0.0 mm 0.00 in0.0 mm
10:55 PM 62.1°F16.7°C 56.5°F13.6°C 82% 3.5 mph SE5.6 kmh SE 8.1 mph13.0 kmh 30.07 in1018.3 mb - 0.00 in0.0 mm 0.00 in0.0 mm
11:00 PM 62.2°F16.8°C 56.6°F13.7°C 82% 4.6 mph SE7.4 kmh SE 6.9 mph11.1 kmh 30.07 in1018.3 mb - 0.00 in0.0 mm 0.00 in0.0 mm
11:10 PM 62.2°F16.8°C 57.0°F13.9°C 83% 4.6 mph SE7.4 kmh SE 5.8 mph9.3 kmh 30.07 in1018.3 mb - 0.00 in0.0 mm 0.00 in0.0 mm
11:15 PM 62.2°F16.8°C 57.0°F13.9°C 83% 3.5 mph SE5.6 kmh SE 6.9 mph11.1 kmh 30.07 in1018.3 mb - 0.00 in0.0 mm 0.00 in0.0 mm
11:20 PM 62.1°F16.7°C 56.9°F13.8°C 83% 4.6 mph SE7.4 kmh SE 6.9 mph11.1 kmh 30.07 in1018.3 mb - 0.00 in0.0 mm 0.00 in0.0 mm
11:25 PM 62.1°F16.7°C 56.9°F13.8°C 83% 4.6 mph SE7.4 kmh SE 6.9 mph11.1 kmh 30.07 in1018.3 mb - 0.00 in0.0 mm 0.00 in0.0 mm
11:30 PM 62.0°F16.7°C 56.8°F13.8°C 83% 5.8 mph SE9.3 kmh SE 9.2 mph14.8 kmh 30.07 in1018.3 mb - 0.00 in0.0 mm 0.00 in0.0 mm
11:35 PM 61.9°F16.6°C 56.7°F13.7°C 83% 3.5 mph SE5.6 kmh SE 4.6 mph7.4 kmh 30.07 in1018.3 mb - 0.00 in0.0 mm 0.00 in0.0 mm
11:40 PM 61.8°F16.6°C 56.9°F13.8°C 84% 4.6 mph SE7.4 kmh SE 6.9 mph11.1 kmh 30.07 in1018.3 mb - 0.00 in0.0 mm 0.00 in0.0 mm
11:45 PM 61.8°F16.6°C 56.9°F13.8°C 84% 4.6 mph SE7.4 kmh SE 4.6 mph7.4 kmh 30.07 in1018.3 mb - 0.00 in0.0 mm 0.00 in0.0 mm
11:50 PM 61.8°F16.6°C 56.9°F13.8°C 84% 5.8 mph SE9.3 kmh SE 8.1 mph13.0 kmh 30.07 in1018.3 mb - 0.00 in0.0 mm 0.00 in0.0 mm
11:55 PM 61.7°F16.5°C 56.8°F13.8°C 84% 5.8 mph SE9.3 kmh SE 8.1 mph13.0 kmh 30.07 in1018.3 mb - 0.00 in0.0 mm 0.00 in0.0 mm